sensor_id;sensor_type;location;lat;lon;timestamp;temperature;humidity
5850;DHT22;2951;47.712;9.400;2024-02-26T00:00:48;8.30;99.90
5850;DHT22;2951;47.712;9.400;2024-02-26T00:03:17;8.30;99.90
5850;DHT22;2951;47.712;9.400;2024-02-26T00:05:47;8.30;99.90
5850;DHT22;2951;47.712;9.400;2024-02-26T00:08:14;8.30;99.90
5850;DHT22;2951;47.712;9.400;2024-02-26T00:10:40;8.40;99.90
5850;DHT22;2951;47.712;9.400;2024-02-26T00:13:07;8.30;99.90
5850;DHT22;2951;47.712;9.400;2024-02-26T00:15:34;8.30;99.90
5850;DHT22;2951;47.712;9.400;2024-02-26T00:18:03;8.30;99.90
5850;DHT22;2951;47.712;9.400;2024-02-26T00:20:30;8.30;99.90
5850;DHT22;2951;47.712;9.400;2024-02-26T00:22:57;8.40;99.90
5850;DHT22;2951;47.712;9.400;2024-02-26T00:25:23;8.40;99.90
5850;DHT22;2951;47.712;9.400;2024-02-26T00:27:50;8.30;99.90
5850;DHT22;2951;47.712;9.400;2024-02-26T00:30:17;8.40;99.90
5850;DHT22;2951;47.712;9.400;2024-02-26T00:32:45;8.30;99.90
5850;DHT22;2951;47.712;9.400;2024-02-26T00:35:12;8.30;99.90
5850;DHT22;2951;47.712;9.400;2024-02-26T00:37:38;8.30;99.90
5850;DHT22;2951;47.712;9.400;2024-02-26T00:40:06;8.30;99.90
5850;DHT22;2951;47.712;9.400;2024-02-26T00:42:33;8.30;99.90
5850;DHT22;2951;47.712;9.400;2024-02-26T00:45:00;8.20;99.90
5850;DHT22;2951;47.712;9.400;2024-02-26T00:47:27;8.20;99.90
5850;DHT22;2951;47.712;9.400;2024-02-26T00:49:56;8.20;99.90
5850;DHT22;2951;47.712;9.400;2024-02-26T00:52:23;8.20;99.90
5850;DHT22;2951;47.712;9.400;2024-02-26T00:54:52;8.20;99.90
5850;DHT22;2951;47.712;9.400;2024-02-26T00:57:18;8.30;99.90
5850;DHT22;2951;47.712;9.400;2024-02-26T00:59:45;8.30;99.90
5850;DHT22;2951;47.712;9.400;2024-02-26T01:02:19;8.30;99.90
5850;DHT22;2951;47.712;9.400;2024-02-26T01:04:45;8.30;99.90
5850;DHT22;2951;47.712;9.400;2024-02-26T01:07:12;8.40;99.90
5850;DHT22;2951;47.712;9.400;2024-02-26T01:09:39;8.50;99.90
5850;DHT22;2951;47.712;9.400;2024-02-26T01:12:06;8.40;99.90
5850;DHT22;2951;47.712;9.400;2024-02-26T01:14:32;8.40;99.90
5850;DHT22;2951;47.712;9.400;2024-02-26T01:16:59;8.40;99.90
5850;DHT22;2951;47.712;9.400;2024-02-26T01:19:26;8.30;99.90
5850;DHT22;2951;47.712;9.400;2024-02-26T01:21:53;8.30;99.90
5850;DHT22;2951;47.712;9.400;2024-02-26T01:24:20;8.30;99.90
5850;DHT22;2951;47.712;9.400;2024-02-26T01:26:47;8.30;99.90
5850;DHT22;2951;47.712;9.400;2024-02-26T01:29:14;8.30;99.90
5850;DHT22;2951;47.712;9.400;2024-02-26T01:31:40;8.30;99.90
5850;DHT22;2951;47.712;9.400;2024-02-26T01:34:07;8.30;99.90
5850;DHT22;2951;47.712;9.400;2024-02-26T01:36:34;8.30;99.90
5850;DHT22;2951;47.712;9.400;2024-02-26T01:39:01;8.30;99.90
5850;DHT22;2951;47.712;9.400;2024-02-26T01:41:30;8.30;99.90
5850;DHT22;2951;47.712;9.400;2024-02-26T01:43:56;8.30;99.90
5850;DHT22;2951;47.712;9.400;2024-02-26T01:46:25;8.20;99.90
5850;DHT22;2951;47.712;9.400;2024-02-26T01:48:51;8.20;99.90
5850;DHT22;2951;47.712;9.400;2024-02-26T01:51:18;8.20;99.90
5850;DHT22;2951;47.712;9.400;2024-02-26T01:53:45;8.10;99.90
5850;DHT22;2951;47.712;9.400;2024-02-26T01:56:12;8.10;99.90
5850;DHT22;2951;47.712;9.400;2024-02-26T01:58:39;8.10;99.90
5850;DHT22;2951;47.712;9.400;2024-02-26T02:01:06;8.00;99.90
5850;DHT22;2951;47.712;9.400;2024-02-26T02:03:40;8.00;99.90
5850;DHT22;2951;47.712;9.400;2024-02-26T02:06:08;8.00;99.90
5850;DHT22;2951;47.712;9.400;2024-02-26T02:08:35;8.10;99.90
5850;DHT22;2951;47.712;9.400;2024-02-26T02:11:02;7.90;99.90
5850;DHT22;2951;47.712;9.400;2024-02-26T02:13:28;7.80;99.90
5850;DHT22;2951;47.712;9.400;2024-02-26T02:15:55;7.90;99.90
5850;DHT22;2951;47.712;9.400;2024-02-26T02:18:22;7.90;99.90
5850;DHT22;2951;47.712;9.400;2024-02-26T02:20:49;7.90;99.90
5850;DHT22;2951;47.712;9.400;2024-02-26T02:23:16;7.90;99.90
5850;DHT22;2951;47.712;9.400;2024-02-26T02:25:42;7.90;99.90
5850;DHT22;2951;47.712;9.400;2024-02-26T02:28:11;7.80;99.90
5850;DHT22;2951;47.712;9.400;2024-02-26T02:30:38;7.70;99.90
5850;DHT22;2951;47.712;9.400;2024-02-26T02:33:05;7.50;99.90
5850;DHT22;2951;47.712;9.400;2024-02-26T02:35:32;7.40;99.90
5850;DHT22;2951;47.712;9.400;2024-02-26T02:37:59;7.30;99.90
5850;DHT22;2951;47.712;9.400;2024-02-26T02:40:25;7.20;99.90
5850;DHT22;2951;47.712;9.400;2024-02-26T02:42:53;7.00;99.90
5850;DHT22;2951;47.712;9.400;2024-02-26T02:45:20;6.80;99.90
5850;DHT22;2951;47.712;9.400;2024-02-26T02:47:46;6.80;99.90
5850;DHT22;2951;47.712;9.400;2024-02-26T02:50:16;6.60;99.90
5850;DHT22;2951;47.712;9.400;2024-02-26T02:52:42;6.50;99.90
5850;DHT22;2951;47.712;9.400;2024-02-26T02:55:09;6.50;99.90
5850;DHT22;2951;47.712;9.400;2024-02-26T02:57:35;6.30;99.90
5850;DHT22;2951;47.712;9.400;2024-02-26T03:00:08;6.20;99.90
5850;DHT22;2951;47.712;9.400;2024-02-26T03:02:42;6.30;99.90
5850;DHT22;2951;47.712;9.400;2024-02-26T03:05:09;6.40;99.90
5850;DHT22;2951;47.712;9.400;2024-02-26T03:07:36;6.50;99.90
5850;DHT22;2951;47.712;9.400;2024-02-26T03:10:03;6.50;99.90
5850;DHT22;2951;47.712;9.400;2024-02-26T03:12:29;6.40;99.90
5850;DHT22;2951;47.712;9.400;2024-02-26T03:14:56;6.40;99.90
5850;DHT22;2951;47.712;9.400;2024-02-26T03:17:25;6.30;99.90
5850;DHT22;2951;47.712;9.400;2024-02-26T03:19:51;6.40;99.90
5850;DHT22;2951;47.712;9.400;2024-02-26T03:22:20;6.30;99.90
5850;DHT22;2951;47.712;9.400;2024-02-26T03:24:47;6.30;99.90
5850;DHT22;2951;47.712;9.400;2024-02-26T03:27:14;6.20;99.90
5850;DHT22;2951;47.712;9.400;2024-02-26T03:29:41;6.20;99.90
5850;DHT22;2951;47.712;9.400;2024-02-26T03:32:08;6.40;99.90
5850;DHT22;2951;47.712;9.400;2024-02-26T03:34:35;6.60;99.90
5850;DHT22;2951;47.712;9.400;2024-02-26T03:37:01;6.60;99.90
5850;DHT22;2951;47.712;9.400;2024-02-26T03:39:29;6.70;99.90
5850;DHT22;2951;47.712;9.400;2024-02-26T03:41:56;6.80;99.90
5850;DHT22;2951;47.712;9.400;2024-02-26T03:44:23;6.80;99.90
5850;DHT22;2951;47.712;9.400;2024-02-26T03:46:52;6.80;99.90
5850;DHT22;2951;47.712;9.400;2024-02-26T03:49:18;6.90;99.90
5850;DHT22;2951;47.712;9.400;2024-02-26T03:51:45;6.80;99.90
5850;DHT22;2951;47.712;9.400;2024-02-26T03:54:12;6.80;99.90
5850;DHT22;2951;47.712;9.400;2024-02-26T03:56:39;6.90;99.90
5850;DHT22;2951;47.712;9.400;2024-02-26T03:59:05;6.80;99.90
5850;DHT22;2951;47.712;9.400;2024-02-26T04:01:32;6.70;99.90
5850;DHT22;2951;47.712;9.400;2024-02-26T04:04:07;6.30;99.90
5850;DHT22;2951;47.712;9.400;2024-02-26T04:06:36;6.40;99.90
5850;DHT22;2951;47.712;9.400;2024-02-26T04:09:03;6.40;99.90
5850;DHT22;2951;47.712;9.400;2024-02-26T04:11:30;6.40;99.90
5850;DHT22;2951;47.712;9.400;2024-02-26T04:13:58;6.50;99.90
5850;DHT22;2951;47.712;9.400;2024-02-26T04:16:24;6.50;99.90
5850;DHT22;2951;47.712;9.400;2024-02-26T04:18:51;6.50;99.90
5850;DHT22;2951;47.712;9.400;2024-02-26T04:21:20;6.60;99.90
5850;DHT22;2951;47.712;9.400;2024-02-26T04:23:46;6.60;99.90
5850;DHT22;2951;47.712;9.400;2024-02-26T04:26:15;6.60;99.90
5850;DHT22;2951;47.712;9.400;2024-02-26T04:28:42;6.70;99.90
5850;DHT22;2951;47.712;9.400;2024-02-26T04:31:09;6.90;99.90
5850;DHT22;2951;47.712;9.400;2024-02-26T04:33:35;6.90;99.90
5850;DHT22;2951;47.712;9.400;2024-02-26T04:36:02;6.90;99.90
5850;DHT22;2951;47.712;9.400;2024-02-26T04:38:29;6.90;99.90
5850;DHT22;2951;47.712;9.400;2024-02-26T04:40:56;6.90;99.90
5850;DHT22;2951;47.712;9.400;2024-02-26T04:43:22;7.00;99.90
5850;DHT22;2951;47.712;9.400;2024-02-26T04:45:49;6.90;99.90
5850;DHT22;2951;47.712;9.400;2024-02-26T04:48:16;6.80;99.90
5850;DHT22;2951;47.712;9.400;2024-02-26T04:50:43;6.80;99.90
5850;DHT22;2951;47.712;9.400;2024-02-26T04:53:09;6.70;99.90
5850;DHT22;2951;47.712;9.400;2024-02-26T04:55:36;6.50;99.90
5850;DHT22;2951;47.712;9.400;2024-02-26T04:58:03;6.40;99.90
5850;DHT22;2951;47.712;9.400;2024-02-26T05:00:30;6.30;99.90
5850;DHT22;2951;47.712;9.400;2024-02-26T05:03:02;6.30;99.90
5850;DHT22;2951;47.712;9.400;2024-02-26T05:05:30;6.40;99.90
5850;DHT22;2951;47.712;9.400;2024-02-26T05:07:57;6.30;99.90
5850;DHT22;2951;47.712;9.400;2024-02-26T05:10:24;6.30;99.90
5850;DHT22;2951;47.712;9.400;2024-02-26T05:12:50;6.20;99.90
5850;DHT22;2951;47.712;9.400;2024-02-26T05:15:17;6.20;99.90
5850;DHT22;2951;47.712;9.400;2024-02-26T05:17:45;6.10;99.90
5850;DHT22;2951;47.712;9.400;2024-02-26T05:20:12;6.10;99.90
5850;DHT22;2951;47.712;9.400;2024-02-26T05:22:38;6.10;99.90
5850;DHT22;2951;47.712;9.400;2024-02-26T05:25:06;6.10;99.90
5850;DHT22;2951;47.712;9.400;2024-02-26T05:27:33;6.10;99.90
5850;DHT22;2951;47.712;9.400;2024-02-26T05:30:00;6.10;99.90
5850;DHT22;2951;47.712;9.400;2024-02-26T05:32:27;6.10;99.90
5850;DHT22;2951;47.712;9.400;2024-02-26T05:34:55;6.10;99.90
5850;DHT22;2951;47.712;9.400;2024-02-26T05:37:22;6.00;99.90
5850;DHT22;2951;47.712;9.400;2024-02-26T05:39:49;6.00;99.90
5850;DHT22;2951;47.712;9.400;2024-02-26T05:42:16;6.00;99.90
5850;DHT22;2951;47.712;9.400;2024-02-26T05:44:43;6.00;99.90
5850;DHT22;2951;47.712;9.400;2024-02-26T05:47:10;6.10;99.90
5850;DHT22;2951;47.712;9.400;2024-02-26T05:49:37;6.20;99.90
5850;DHT22;2951;47.712;9.400;2024-02-26T05:52:04;6.20;99.90
5850;DHT22;2951;47.712;9.400;2024-02-26T05:54:31;6.30;99.90
5850;DHT22;2951;47.712;9.400;2024-02-26T05:56:57;6.30;99.90
5850;DHT22;2951;47.712;9.400;2024-02-26T05:59:24;6.30;99.90
5850;DHT22;2951;47.712;9.400;2024-02-26T06:01:51;6.30;99.90
5850;DHT22;2951;47.712;9.400;2024-02-26T06:04:21;6.20;99.90
5850;DHT22;2951;47.712;9.400;2024-02-26T06:06:52;6.10;99.90
5850;DHT22;2951;47.712;9.400;2024-02-26T06:09:19;5.90;99.90
5850;DHT22;2951;47.712;9.400;2024-02-26T06:11:46;5.80;99.90
5850;DHT22;2951;47.712;9.400;2024-02-26T06:14:12;5.80;99.90
5850;DHT22;2951;47.712;9.400;2024-02-26T06:16:40;5.90;99.90
5850;DHT22;2951;47.712;9.400;2024-02-26T06:19:07;6.00;99.90
5850;DHT22;2951;47.712;9.400;2024-02-26T06:21:38;6.00;99.90
5850;DHT22;2951;47.712;9.400;2024-02-26T06:24:05;6.00;99.90
5850;DHT22;2951;47.712;9.400;2024-02-26T06:26:32;6.00;99.90
5850;DHT22;2951;47.712;9.400;2024-02-26T06:29:00;5.90;99.90
5850;DHT22;2951;47.712;9.400;2024-02-26T06:31:26;5.80;99.90
5850;DHT22;2951;47.712;9.400;2024-02-26T06:33:54;5.70;99.90
5850;DHT22;2951;47.712;9.400;2024-02-26T06:36:22;5.70;99.90
5850;DHT22;2951;47.712;9.400;2024-02-26T06:38:49;5.80;99.90
5850;DHT22;2951;47.712;9.400;2024-02-26T06:41:16;5.80;99.90
5850;DHT22;2951;47.712;9.400;2024-02-26T06:43:43;5.90;99.90
5850;DHT22;2951;47.712;9.400;2024-02-26T06:46:10;5.90;99.90
5850;DHT22;2951;47.712;9.400;2024-02-26T06:48:36;5.90;99.90
5850;DHT22;2951;47.712;9.400;2024-02-26T06:51:03;6.00;99.90
5850;DHT22;2951;47.712;9.400;2024-02-26T06:53:30;6.10;99.90
5850;DHT22;2951;47.712;9.400;2024-02-26T06:55:57;6.10;99.90
5850;DHT22;2951;47.712;9.400;2024-02-26T06:58:24;6.00;99.90
5850;DHT22;2951;47.712;9.400;2024-02-26T07:00:50;6.00;99.90
5850;DHT22;2951;47.712;9.400;2024-02-26T07:03:24;6.00;99.90
5850;DHT22;2951;47.712;9.400;2024-02-26T07:05:52;6.10;99.90
5850;DHT22;2951;47.712;9.400;2024-02-26T07:08:19;6.10;99.90
5850;DHT22;2951;47.712;9.400;2024-02-26T07:10:45;6.20;99.90
5850;DHT22;2951;47.712;9.400;2024-02-26T07:13:12;6.20;99.90
5850;DHT22;2951;47.712;9.400;2024-02-26T07:15:39;6.30;99.90
5850;DHT22;2951;47.712;9.400;2024-02-26T07:18:06;6.40;99.90
5850;DHT22;2951;47.712;9.400;2024-02-26T07:20:33;6.50;99.90
5850;DHT22;2951;47.712;9.400;2024-02-26T07:23:02;6.60;99.90
5850;DHT22;2951;47.712;9.400;2024-02-26T07:25:29;6.70;99.90
5850;DHT22;2951;47.712;9.400;2024-02-26T07:27:56;6.60;99.90
5850;DHT22;2951;47.712;9.400;2024-02-26T07:30:24;6.70;99.90
5850;DHT22;2951;47.712;9.400;2024-02-26T07:32:51;6.80;99.90
5850;DHT22;2951;47.712;9.400;2024-02-26T07:35:18;7.00;99.90
5850;DHT22;2951;47.712;9.400;2024-02-26T07:37:47;7.10;99.90
5850;DHT22;2951;47.712;9.400;2024-02-26T07:40:14;7.20;99.90
5850;DHT22;2951;47.712;9.400;2024-02-26T07:42:41;7.30;99.90
5850;DHT22;2951;47.712;9.400;2024-02-26T07:45:08;7.40;99.90
5850;DHT22;2951;47.712;9.400;2024-02-26T07:47:35;7.40;99.90
5850;DHT22;2951;47.712;9.400;2024-02-26T07:50:02;7.40;99.90
5850;DHT22;2951;47.712;9.400;2024-02-26T07:52:29;7.40;99.90
5850;DHT22;2951;47.712;9.400;2024-02-26T07:54:55;7.40;99.90
5850;DHT22;2951;47.712;9.400;2024-02-26T07:57:22;7.30;99.90
5850;DHT22;2951;47.712;9.400;2024-02-26T07:59:52;7.30;99.90
5850;DHT22;2951;47.712;9.400;2024-02-26T08:02:19;7.30;99.90
5850;DHT22;2951;47.712;9.400;2024-02-26T08:05:10;7.40;99.90
5850;DHT22;2951;47.712;9.400;2024-02-26T08:07:37;7.30;99.90
5850;DHT22;2951;47.712;9.400;2024-02-26T08:10:06;7.40;99.90
5850;DHT22;2951;47.712;9.400;2024-02-26T08:12:33;7.50;99.90
5850;DHT22;2951;47.712;9.400;2024-02-26T08:15:00;7.20;99.90
5850;DHT22;2951;47.712;9.400;2024-02-26T08:17:27;7.40;99.90
5850;DHT22;2951;47.712;9.400;2024-02-26T08:19:54;7.50;99.90
5850;DHT22;2951;47.712;9.400;2024-02-26T08:22:21;7.60;99.90
5850;DHT22;2951;47.712;9.400;2024-02-26T08:24:48;7.60;99.90
5850;DHT22;2951;47.712;9.400;2024-02-26T08:27:16;7.60;99.90
5850;DHT22;2951;47.712;9.400;2024-02-26T08:29:42;7.70;99.90
5850;DHT22;2951;47.712;9.400;2024-02-26T08:32:09;7.70;99.90
5850;DHT22;2951;47.712;9.400;2024-02-26T08:34:37;7.90;99.90
5850;DHT22;2951;47.712;9.400;2024-02-26T08:37:04;8.00;99.90
5850;DHT22;2951;47.712;9.400;2024-02-26T08:39:31;8.20;99.90
5850;DHT22;2951;47.712;9.400;2024-02-26T08:41:58;8.20;99.90
5850;DHT22;2951;47.712;9.400;2024-02-26T08:44:25;8.20;99.90
5850;DHT22;2951;47.712;9.400;2024-02-26T08:46:52;8.20;99.90
5850;DHT22;2951;47.712;9.400;2024-02-26T08:49:19;8.30;99.90
5850;DHT22;2951;47.712;9.400;2024-02-26T08:51:46;8.30;99.90
5850;DHT22;2951;47.712;9.400;2024-02-26T08:54:13;8.20;99.90
5850;DHT22;2951;47.712;9.400;2024-02-26T08:56:40;8.10;99.90
5850;DHT22;2951;47.712;9.400;2024-02-26T08:59:07;8.10;99.90
5850;DHT22;2951;47.712;9.400;2024-02-26T09:01:34;8.20;99.90
5850;DHT22;2951;47.712;9.400;2024-02-26T09:04:05;8.30;99.90
5850;DHT22;2951;47.712;9.400;2024-02-26T09:06:31;8.40;99.90
5850;DHT22;2951;47.712;9.400;2024-02-26T09:08:58;8.50;99.90
5850;DHT22;2951;47.712;9.400;2024-02-26T09:11:27;8.50;99.90
5850;DHT22;2951;47.712;9.400;2024-02-26T09:13:54;8.60;99.90
5850;DHT22;2951;47.712;9.400;2024-02-26T09:16:21;8.80;99.90
5850;DHT22;2951;47.712;9.400;2024-02-26T09:18:48;8.90;99.90
5850;DHT22;2951;47.712;9.400;2024-02-26T09:21:14;9.20;99.90
5850;DHT22;2951;47.712;9.400;2024-02-26T09:23:42;9.40;99.90
5850;DHT22;2951;47.712;9.400;2024-02-26T09:26:09;9.50;99.90
5850;DHT22;2951;47.712;9.400;2024-02-26T09:28:36;9.80;99.90
5850;DHT22;2951;47.712;9.400;2024-02-26T09:31:04;9.90;99.90
5850;DHT22;2951;47.712;9.400;2024-02-26T09:33:33;10.10;99.90
5850;DHT22;2951;47.712;9.400;2024-02-26T09:36:00;9.60;99.90
5850;DHT22;2951;47.712;9.400;2024-02-26T09:38:27;9.60;99.90
5850;DHT22;2951;47.712;9.400;2024-02-26T09:40:54;9.70;99.90
5850;DHT22;2951;47.712;9.400;2024-02-26T09:43:21;9.80;99.90
5850;DHT22;2951;47.712;9.400;2024-02-26T09:45:53;10.00;99.90
5850;DHT22;2951;47.712;9.400;2024-02-26T09:48:19;10.10;99.90
5850;DHT22;2951;47.712;9.400;2024-02-26T09:50:46;10.30;99.90
5850;DHT22;2951;47.712;9.400;2024-02-26T09:53:13;10.20;99.90
5850;DHT22;2951;47.712;9.400;2024-02-26T09:55:42;10.30;99.90
5850;DHT22;2951;47.712;9.400;2024-02-26T09:58:08;10.40;99.90
5850;DHT22;2951;47.712;9.400;2024-02-26T10:00:37;10.50;99.90
5850;DHT22;2951;47.712;9.400;2024-02-26T10:03:06;10.70;99.90
5850;DHT22;2951;47.712;9.400;2024-02-26T10:05:42;10.90;99.90
5850;DHT22;2951;47.712;9.400;2024-02-26T10:08:12;11.10;99.90
5850;DHT22;2951;47.712;9.400;2024-02-26T10:10:40;11.20;99.90
5850;DHT22;2951;47.712;9.400;2024-02-26T10:13:07;11.30;99.90
5850;DHT22;2951;47.712;9.400;2024-02-26T10:15:36;10.90;99.90
5850;DHT22;2951;47.712;9.400;2024-02-26T10:18:04;10.60;99.90
5850;DHT22;2951;47.712;9.400;2024-02-26T10:20:31;10.60;99.90
5850;DHT22;2951;47.712;9.400;2024-02-26T10:22:58;10.60;99.90
5850;DHT22;2951;47.712;9.400;2024-02-26T10:25:25;10.60;99.90
5850;DHT22;2951;47.712;9.400;2024-02-26T10:27:52;10.90;99.90
5850;DHT22;2951;47.712;9.400;2024-02-26T10:30:21;10.90;99.90
5850;DHT22;2951;47.712;9.400;2024-02-26T10:32:49;11.30;99.90
5850;DHT22;2951;47.712;9.400;2024-02-26T10:35:17;11.60;99.90
5850;DHT22;2951;47.712;9.400;2024-02-26T10:37:56;11.90;99.90
5850;DHT22;2951;47.712;9.400;2024-02-26T10:40:23;12.10;99.90
5850;DHT22;2951;47.712;9.400;2024-02-26T10:42:49;12.20;99.90
5850;DHT22;2951;47.712;9.400;2024-02-26T10:45:18;12.30;99.90
5850;DHT22;2951;47.712;9.400;2024-02-26T10:47:45;12.30;99.90
5850;DHT22;2951;47.712;9.400;2024-02-26T10:50:13;12.20;99.90
5850;DHT22;2951;47.712;9.400;2024-02-26T10:52:42;12.20;99.90
5850;DHT22;2951;47.712;9.400;2024-02-26T10:55:11;12.20;99.90
5850;DHT22;2951;47.712;9.400;2024-02-26T10:57:40;12.30;99.90
5850;DHT22;2951;47.712;9.400;2024-02-26T11:00:10;12.30;99.90
5850;DHT22;2951;47.712;9.400;2024-02-26T11:02:40;12.40;99.90
5850;DHT22;2951;47.712;9.400;2024-02-26T11:05:07;12.40;99.90
5850;DHT22;2951;47.712;9.400;2024-02-26T11:07:34;12.50;99.90
5850;DHT22;2951;47.712;9.400;2024-02-26T11:10:03;12.40;99.90
5850;DHT22;2951;47.712;9.400;2024-02-26T11:12:31;12.30;99.90
5850;DHT22;2951;47.712;9.400;2024-02-26T11:15:00;12.00;99.90
5850;DHT22;2951;47.712;9.400;2024-02-26T11:17:28;12.00;99.90
5850;DHT22;2951;47.712;9.400;2024-02-26T11:19:59;12.10;99.90
5850;DHT22;2951;47.712;9.400;2024-02-26T11:22:28;12.00;99.90
5850;DHT22;2951;47.712;9.400;2024-02-26T11:24:55;11.70;99.90
5850;DHT22;2951;47.712;9.400;2024-02-26T11:27:28;11.60;99.90
5850;DHT22;2951;47.712;9.400;2024-02-26T11:29:57;11.20;99.90
5850;DHT22;2951;47.712;9.400;2024-02-26T11:32:26;11.00;99.90
5850;DHT22;2951;47.712;9.400;2024-02-26T11:34:54;10.70;99.90
5850;DHT22;2951;47.712;9.400;2024-02-26T11:37:21;10.50;99.90
5850;DHT22;2951;47.712;9.400;2024-02-26T11:39:47;10.40;99.90
5850;DHT22;2951;47.712;9.400;2024-02-26T11:42:15;10.40;99.90
5850;DHT22;2951;47.712;9.400;2024-02-26T11:44:45;10.40;99.90
5850;DHT22;2951;47.712;9.400;2024-02-26T11:47:13;10.40;99.90
5850;DHT22;2951;47.712;9.400;2024-02-26T11:49:40;10.20;99.90
5850;DHT22;2951;47.712;9.400;2024-02-26T11:52:07;10.10;99.90
5850;DHT22;2951;47.712;9.400;2024-02-26T11:57:04;10.10;99.90
5850;DHT22;2951;47.712;9.400;2024-02-26T11:59:45;10.30;99.90
5850;DHT22;2951;47.712;9.400;2024-02-26T12:02:17;10.40;99.90
5850;DHT22;2951;47.712;9.400;2024-02-26T12:05:10;10.40;99.90
5850;DHT22;2951;47.712;9.400;2024-02-26T12:07:42;10.10;99.90
5850;DHT22;2951;47.712;9.400;2024-02-26T12:10:27;9.90;99.90
5850;DHT22;2951;47.712;9.400;2024-02-26T12:12:58;9.90;99.90
5850;DHT22;2951;47.712;9.400;2024-02-26T12:15:29;9.70;99.90
5850;DHT22;2951;47.712;9.400;2024-02-26T12:17:56;9.70;99.90
5850;DHT22;2951;47.712;9.400;2024-02-26T12:20:23;9.80;99.90
5850;DHT22;2951;47.712;9.400;2024-02-26T12:22:50;10.00;99.90
5850;DHT22;2951;47.712;9.400;2024-02-26T12:25:22;10.20;99.90
5850;DHT22;2951;47.712;9.400;2024-02-26T12:27:50;10.50;99.90
5850;DHT22;2951;47.712;9.400;2024-02-26T12:30:17;10.80;99.90
5850;DHT22;2951;47.712;9.400;2024-02-26T12:32:45;10.70;99.90
5850;DHT22;2951;47.712;9.400;2024-02-26T12:35:12;10.90;99.90
5850;DHT22;2951;47.712;9.400;2024-02-26T12:37:40;10.80;99.90
5850;DHT22;2951;47.712;9.400;2024-02-26T12:40:09;11.20;99.90
5850;DHT22;2951;47.712;9.400;2024-02-26T12:42:36;11.80;99.90
5850;DHT22;2951;47.712;9.400;2024-02-26T12:45:07;12.20;99.90
5850;DHT22;2951;47.712;9.400;2024-02-26T12:47:38;12.40;99.90
5850;DHT22;2951;47.712;9.400;2024-02-26T12:50:05;11.80;99.90
5850;DHT22;2951;47.712;9.400;2024-02-26T12:52:35;11.90;99.90
5850;DHT22;2951;47.712;9.400;2024-02-26T12:55:02;11.90;99.90
5850;DHT22;2951;47.712;9.400;2024-02-26T12:57:32;12.10;99.90
5850;DHT22;2951;47.712;9.400;2024-02-26T13:00:01;12.50;99.90
5850;DHT22;2951;47.712;9.400;2024-02-26T13:02:31;12.60;99.90
5850;DHT22;2951;47.712;9.400;2024-02-26T13:04:58;13.00;99.90
5850;DHT22;2951;47.712;9.400;2024-02-26T13:07:28;13.40;99.90
5850;DHT22;2951;47.712;9.400;2024-02-26T13:09:55;13.70;99.90
5850;DHT22;2951;47.712;9.400;2024-02-26T13:12:22;13.70;99.90
5850;DHT22;2951;47.712;9.400;2024-02-26T13:15:02;13.80;99.90
5850;DHT22;2951;47.712;9.400;2024-02-26T13:17:32;13.90;99.90
5850;DHT22;2951;47.712;9.400;2024-02-26T13:19:59;13.80;99.90
5850;DHT22;2951;47.712;9.400;2024-02-26T13:22:26;13.50;99.90
5850;DHT22;2951;47.712;9.400;2024-02-26T13:24:53;13.80;99.90
5850;DHT22;2951;47.712;9.400;2024-02-26T13:27:23;14.00;99.90
5850;DHT22;2951;47.712;9.400;2024-02-26T13:30:03;13.80;99.90
5850;DHT22;2951;47.712;9.400;2024-02-26T13:32:32;13.70;99.90
5850;DHT22;2951;47.712;9.400;2024-02-26T13:35:08;13.70;99.90
5850;DHT22;2951;47.712;9.400;2024-02-26T13:37:36;13.60;99.90
5850;DHT22;2951;47.712;9.400;2024-02-26T13:42:34;13.70;99.90
5850;DHT22;2951;47.712;9.400;2024-02-26T13:45:01;13.60;99.90
5850;DHT22;2951;47.712;9.400;2024-02-26T13:47:28;13.50;99.90
5850;DHT22;2951;47.712;9.400;2024-02-26T13:49:56;13.50;99.90
5850;DHT22;2951;47.712;9.400;2024-02-26T13:52:24;13.50;99.90
5850;DHT22;2951;47.712;9.400;2024-02-26T13:54:52;13.50;99.90
5850;DHT22;2951;47.712;9.400;2024-02-26T13:57:19;13.10;99.90
5850;DHT22;2951;47.712;9.400;2024-02-26T13:59:49;12.80;99.90
5850;DHT22;2951;47.712;9.400;2024-02-26T14:02:16;12.50;99.90
5850;DHT22;2951;47.712;9.400;2024-02-26T14:04:47;12.40;99.90
5850;DHT22;2951;47.712;9.400;2024-02-26T14:07:14;12.50;99.90
5850;DHT22;2951;47.712;9.400;2024-02-26T14:09:41;12.60;99.90
5850;DHT22;2951;47.712;9.400;2024-02-26T14:12:14;12.70;99.90
5850;DHT22;2951;47.712;9.400;2024-02-26T14:14:41;12.90;99.90
5850;DHT22;2951;47.712;9.400;2024-02-26T14:17:09;12.90;99.90
5850;DHT22;2951;47.712;9.400;2024-02-26T14:19:36;12.80;99.90
5850;DHT22;2951;47.712;9.400;2024-02-26T14:22:04;12.70;99.90
5850;DHT22;2951;47.712;9.400;2024-02-26T14:24:31;12.60;99.90
5850;DHT22;2951;47.712;9.400;2024-02-26T14:26:59;12.50;99.90
5850;DHT22;2951;47.712;9.400;2024-02-26T14:29:28;12.50;99.90
5850;DHT22;2951;47.712;9.400;2024-02-26T14:31:55;12.40;99.90
5850;DHT22;2951;47.712;9.400;2024-02-26T14:34:23;12.40;99.90
5850;DHT22;2951;47.712;9.400;2024-02-26T14:36:51;12.40;99.90
5850;DHT22;2951;47.712;9.400;2024-02-26T14:39:17;12.30;99.90
5850;DHT22;2951;47.712;9.400;2024-02-26T14:41:44;12.30;99.90
5850;DHT22;2951;47.712;9.400;2024-02-26T14:44:11;12.30;99.90
5850;DHT22;2951;47.712;9.400;2024-02-26T14:46:39;12.20;99.90
5850;DHT22;2951;47.712;9.400;2024-02-26T14:49:05;12.20;99.90
5850;DHT22;2951;47.712;9.400;2024-02-26T14:51:33;12.20;99.90
5850;DHT22;2951;47.712;9.400;2024-02-26T14:54:00;12.10;99.90
5850;DHT22;2951;47.712;9.400;2024-02-26T14:56:28;12.00;99.90
5850;DHT22;2951;47.712;9.400;2024-02-26T14:58:57;12.00;99.90
5850;DHT22;2951;47.712;9.400;2024-02-26T15:01:24;11.90;99.90
5850;DHT22;2951;47.712;9.400;2024-02-26T15:03:55;11.80;99.90
5850;DHT22;2951;47.712;9.400;2024-02-26T15:06:22;11.80;99.90
5850;DHT22;2951;47.712;9.400;2024-02-26T15:08:49;11.80;99.90
5850;DHT22;2951;47.712;9.400;2024-02-26T15:11:16;11.80;99.90
5850;DHT22;2951;47.712;9.400;2024-02-26T15:13:43;11.80;99.90
5850;DHT22;2951;47.712;9.400;2024-02-26T15:16:16;11.70;99.90
5850;DHT22;2951;47.712;9.400;2024-02-26T15:18:43;11.70;99.90
5850;DHT22;2951;47.712;9.400;2024-02-26T15:21:13;11.70;99.90
5850;DHT22;2951;47.712;9.400;2024-02-26T15:23:42;11.70;99.90
5850;DHT22;2951;47.712;9.400;2024-02-26T15:26:19;11.60;99.90
5850;DHT22;2951;47.712;9.400;2024-02-26T15:28:46;11.60;99.90
5850;DHT22;2951;47.712;9.400;2024-02-26T15:31:13;11.50;99.90
5850;DHT22;2951;47.712;9.400;2024-02-26T15:33:40;11.50;99.90
5850;DHT22;2951;47.712;9.400;2024-02-26T15:36:08;11.50;99.90
5850;DHT22;2951;47.712;9.400;2024-02-26T15:38:37;11.50;99.90
5850;DHT22;2951;47.712;9.400;2024-02-26T15:41:10;11.50;99.90
5850;DHT22;2951;47.712;9.400;2024-02-26T15:43:37;11.50;99.90
5850;DHT22;2951;47.712;9.400;2024-02-26T15:46:04;11.50;99.90
5850;DHT22;2951;47.712;9.400;2024-02-26T15:48:32;11.50;99.90
5850;DHT22;2951;47.712;9.400;2024-02-26T15:50:59;11.50;99.90
5850;DHT22;2951;47.712;9.400;2024-02-26T15:53:26;11.50;99.90
5850;DHT22;2951;47.712;9.400;2024-02-26T15:55:52;11.60;99.90
5850;DHT22;2951;47.712;9.400;2024-02-26T15:58:21;11.50;99.90
5850;DHT22;2951;47.712;9.400;2024-02-26T16:00:47;11.60;99.90
5850;DHT22;2951;47.712;9.400;2024-02-26T16:03:16;11.60;99.90
5850;DHT22;2951;47.712;9.400;2024-02-26T16:05:43;11.50;99.90
5850;DHT22;2951;47.712;9.400;2024-02-26T16:10:36;11.20;99.90
5850;DHT22;2951;47.712;9.400;2024-02-26T16:13:05;11.10;99.90
5850;DHT22;2951;47.712;9.400;2024-02-26T16:15:32;11.00;99.90
5850;DHT22;2951;47.712;9.400;2024-02-26T16:18:01;11.00;99.90
5850;DHT22;2951;47.712;9.400;2024-02-26T16:20:29;10.90;99.90
5850;DHT22;2951;47.712;9.400;2024-02-26T16:22:56;10.90;99.90